KDPG

Michael AAF (Dugway Proving Ground) Airport

Dugway Proving Ground, Utah, USA
METAR KDPG 151250Z 10005KT 10SM CLR M13/M14 A3035 RMK SLP307 T11281141 FIRST
Observed Flight Rules
Dec-15 @ 12:50 UTC (53 minutes ago) Visual Flight Rules
Wind Visibility Clouds
100° at 5 knots 10 miles
  • Clear skies
Temperatures Readings
Current -13°C / 9°F
Dewpoint -14°C / 7°F
Humidity 92%
Altimeter 30.35" Hg
Pressure 1030.7 hPa
Elevation 1326
METAR KDPG 151250Z 10005KT 10SM CLR M13/M14 A3035 RMK SLP307 T11281141 FIRST
Observed Flight Rules
Dec-15 @ 12:50 UTC
(53 minutes ago)
VFR
Wind Visibility
100° at 5 knots 10 miles
Clouds
  • Clear skies
Temperature Dewpoint
-13°C / 9°F -14°C / 7°F
Humidity Altimeter Pressure
92% 30.35" Hg 1030.7 hPa